sensor_id;sensor_type;location;lat;lon;timestamp;pressure;altitude;pressure_sealevel;temperature;humidity
70815;BME280;58428;49.478;10.986;2023-03-19T00:02:03;98110.19;;;9.80;100.00
70815;BME280;58428;49.478;10.986;2023-03-19T00:04:29;98108.97;;;9.69;100.00
70815;BME280;58428;49.478;10.986;2023-03-19T00:06:54;98120.97;;;9.60;100.00
70815;BME280;58428;49.478;10.986;2023-03-19T00:09:23;98115.41;;;9.56;100.00
70815;BME280;58428;49.478;10.986;2023-03-19T00:11:50;98118.28;;;9.52;100.00
70815;BME280;58428;49.478;10.986;2023-03-19T00:14:16;98118.50;;;9.47;100.00
70815;BME280;58428;49.478;10.986;2023-03-19T00:16:41;98122.13;;;9.42;100.00
70815;BME280;58428;49.478;10.986;2023-03-19T00:19:08;98118.03;;;9.36;100.00
70815;BME280;58428;49.478;10.986;2023-03-19T00:21:35;98119.81;;;9.32;100.00
70815;BME280;58428;49.478;10.986;2023-03-19T00:24:00;98114.09;;;9.34;100.00
70815;BME280;58428;49.478;10.986;2023-03-19T00:26:28;98112.19;;;9.34;100.00
70815;BME280;58428;49.478;10.986;2023-03-19T00:28:54;98114.09;;;9.34;100.00
70815;BME280;58428;49.478;10.986;2023-03-19T00:31:20;98117.44;;;9.31;100.00
70815;BME280;58428;49.478;10.986;2023-03-19T00:33:49;98114.59;;;9.27;100.00
70815;BME280;58428;49.478;10.986;2023-03-19T00:36:15;98114.78;;;9.22;100.00
70815;BME280;58428;49.478;10.986;2023-03-19T00:38:45;98114.63;;;9.19;100.00
70815;BME280;58428;49.478;10.986;2023-03-19T00:41:14;98120.38;;;9.18;100.00
70815;BME280;58428;49.478;10.986;2023-03-19T00:43:53;98119.25;;;9.18;100.00
70815;BME280;58428;49.478;10.986;2023-03-19T00:46:20;98112.38;;;9.29;100.00
70815;BME280;58428;49.478;10.986;2023-03-19T00:48:49;98123.03;;;9.26;100.00
70815;BME280;58428;49.478;10.986;2023-03-19T00:51:18;98121.25;;;9.30;100.00
70815;BME280;58428;49.478;10.986;2023-03-19T00:53:44;98117.56;;;9.34;100.00
70815;BME280;58428;49.478;10.986;2023-03-19T00:56:11;98125.50;;;9.39;100.00
70815;BME280;58428;49.478;10.986;2023-03-19T00:58:37;98122.94;;;9.43;100.00
70815;BME280;58428;49.478;10.986;2023-03-19T01:01:04;98118.50;;;9.47;100.00
70815;BME280;58428;49.478;10.986;2023-03-19T01:03:34;98124.38;;;9.40;100.00
70815;BME280;58428;49.478;10.986;2023-03-19T01:06:02;98127.41;;;9.39;100.00
70815;BME280;58428;49.478;10.986;2023-03-19T01:08:28;98132.47;;;9.40;100.00
70815;BME280;58428;49.478;10.986;2023-03-19T01:10:53;98124.84;;;9.42;100.00
70815;BME280;58428;49.478;10.986;2023-03-19T01:13:19;98125.66;;;9.43;100.00
70815;BME280;58428;49.478;10.986;2023-03-19T01:15:44;98119.91;;;9.44;100.00
70815;BME280;58428;49.478;10.986;2023-03-19T01:18:14;98129.59;;;9.45;100.00
70815;BME280;58428;49.478;10.986;2023-03-19T01:20:40;98130.91;;;9.39;100.00
70815;BME280;58428;49.478;10.986;2023-03-19T01:23:07;98130.13;;;9.39;100.00
70815;BME280;58428;49.478;10.986;2023-03-19T01:25:33;98134.06;;;9.41;100.00
70815;BME280;58428;49.478;10.986;2023-03-19T01:27:58;98134.69;;;9.47;100.00
70815;BME280;58428;49.478;10.986;2023-03-19T01:30:24;98133.75;;;9.43;100.00
70815;BME280;58428;49.478;10.986;2023-03-19T01:32:50;98130.75;;;9.36;100.00
70815;BME280;58428;49.478;10.986;2023-03-19T01:35:16;98132.84;;;9.30;100.00
70815;BME280;58428;49.478;10.986;2023-03-19T01:37:41;98134.28;;;9.28;100.00
70815;BME280;58428;49.478;10.986;2023-03-19T01:40:09;98129.50;;;9.33;100.00
70815;BME280;58428;49.478;10.986;2023-03-19T01:43:19;98127.88;;;9.41;100.00
70815;BME280;58428;49.478;10.986;2023-03-19T01:45:45;98128.00;;;9.44;100.00
70815;BME280;58428;49.478;10.986;2023-03-19T01:48:47;98122.03;;;9.39;100.00
70815;BME280;58428;49.478;10.986;2023-03-19T01:51:21;98120.28;;;9.34;100.00
70815;BME280;58428;49.478;10.986;2023-03-19T01:53:52;98119.81;;;9.32;100.00
70815;BME280;58428;49.478;10.986;2023-03-19T01:58:55;98098.22;;;9.32;100.00
70815;BME280;58428;49.478;10.986;2023-03-19T02:01:22;98106.78;;;9.34;100.00
70815;BME280;58428;49.478;10.986;2023-03-19T02:03:50;98115.53;;;9.31;100.00
70815;BME280;58428;49.478;10.986;2023-03-19T02:06:18;98112.28;;;9.18;100.00
70815;BME280;58428;49.478;10.986;2023-03-19T02:08:46;98120.94;;;8.86;100.00
70815;BME280;58428;49.478;10.986;2023-03-19T02:11:13;98128.59;;;8.67;100.00
70815;BME280;58428;49.478;10.986;2023-03-19T02:13:38;98137.47;;;8.68;100.00
70815;BME280;58428;49.478;10.986;2023-03-19T02:16:05;98139.22;;;8.72;100.00
70815;BME280;58428;49.478;10.986;2023-03-19T02:18:32;98131.75;;;8.78;100.00
70815;BME280;58428;49.478;10.986;2023-03-19T02:21:05;98124.28;;;8.75;100.00
70815;BME280;58428;49.478;10.986;2023-03-19T02:23:58;98136.97;;;8.82;100.00
70815;BME280;58428;49.478;10.986;2023-03-19T02:26:28;98133.16;;;8.83;100.00
70815;BME280;58428;49.478;10.986;2023-03-19T02:28:54;98136.34;;;8.85;100.00
70815;BME280;58428;49.478;10.986;2023-03-19T02:31:20;98128.88;;;8.91;100.00
70815;BME280;58428;49.478;10.986;2023-03-19T02:37:10;98125.03;;;8.92;100.00
70815;BME280;58428;49.478;10.986;2023-03-19T02:40:03;98125.38;;;8.90;100.00
70815;BME280;58428;49.478;10.986;2023-03-19T02:42:35;98126.63;;;8.93;100.00
70815;BME280;58428;49.478;10.986;2023-03-19T02:45:00;98126.91;;;9.00;100.00
70815;BME280;58428;49.478;10.986;2023-03-19T02:47:26;98133.75;;;8.97;100.00
70815;BME280;58428;49.478;10.986;2023-03-19T02:49:51;98133.44;;;8.99;100.00
70815;BME280;58428;49.478;10.986;2023-03-19T02:52:18;98124.06;;;9.05;100.00
70815;BME280;58428;49.478;10.986;2023-03-19T02:54:44;98126.59;;;9.10;100.00
70815;BME280;58428;49.478;10.986;2023-03-19T02:57:11;98126.59;;;9.10;100.00
70815;BME280;58428;49.478;10.986;2023-03-19T02:59:37;98135.78;;;9.09;100.00
70815;BME280;58428;49.478;10.986;2023-03-19T03:02:04;98135.78;;;9.09;100.00
70815;BME280;58428;49.478;10.986;2023-03-19T03:04:30;98138.31;;;9.14;100.00
70815;BME280;58428;49.478;10.986;2023-03-19T03:06:56;98129.25;;;9.18;100.00
70815;BME280;58428;49.478;10.986;2023-03-19T03:09:26;98130.19;;;9.22;100.00
70815;BME280;58428;49.478;10.986;2023-03-19T03:11:52;98135.38;;;9.27;100.00
70815;BME280;58428;49.478;10.986;2023-03-19T03:14:17;98139.69;;;9.28;100.00
70815;BME280;58428;49.478;10.986;2023-03-19T03:16:43;98136.50;;;9.26;100.00
70815;BME280;58428;49.478;10.986;2023-03-19T03:19:09;98134.75;;;9.30;100.00
70815;BME280;58428;49.478;10.986;2023-03-19T03:21:35;98140.78;;;9.35;100.00
70815;BME280;58428;49.478;10.986;2023-03-19T03:24:01;98146.50;;;9.34;100.00
70815;BME280;58428;49.478;10.986;2023-03-19T03:26:27;98139.84;;;9.31;100.00
70815;BME280;58428;49.478;10.986;2023-03-19T03:28:52;98146.19;;;9.27;100.00
70815;BME280;58428;49.478;10.986;2023-03-19T03:31:18;98159.09;;;9.21;100.00
70815;BME280;58428;49.478;10.986;2023-03-19T03:33:49;98159.91;;;9.14;100.00
70815;BME280;58428;49.478;10.986;2023-03-19T03:36:14;98159.09;;;9.21;100.00
70815;BME280;58428;49.478;10.986;2023-03-19T03:38:40;98163.97;;;9.28;100.00
70815;BME280;58428;49.478;10.986;2023-03-19T03:41:05;98166.38;;;9.29;100.00
70815;BME280;58428;49.478;10.986;2023-03-19T03:43:32;98170.19;;;9.20;100.00
70815;BME280;58428;49.478;10.986;2023-03-19T03:45:58;98162.72;;;9.25;100.00
70815;BME280;58428;49.478;10.986;2023-03-19T03:48:23;98164.75;;;9.28;100.00
70815;BME280;58428;49.478;10.986;2023-03-19T03:50:48;98169.06;;;9.29;100.00
70815;BME280;58428;49.478;10.986;2023-03-19T03:53:14;98163.50;;;9.26;100.00
70815;BME280;58428;49.478;10.986;2023-03-19T03:55:40;98169.72;;;9.18;100.00
70815;BME280;58428;49.478;10.986;2023-03-19T03:58:06;98170.72;;;9.14;100.00
70815;BME280;58428;49.478;10.986;2023-03-19T04:00:33;98165.78;;;9.07;100.00
70815;BME280;58428;49.478;10.986;2023-03-19T04:02:58;98165.78;;;9.07;100.00
70815;BME280;58428;49.478;10.986;2023-03-19T04:05:24;98165.47;;;9.09;100.00
70815;BME280;58428;49.478;10.986;2023-03-19T04:07:50;98160.53;;;9.11;100.00
70815;BME280;58428;49.478;10.986;2023-03-19T04:10:20;98161.69;;;9.10;100.00
70815;BME280;58428;49.478;10.986;2023-03-19T04:12:46;98167.06;;;9.10;100.00
70815;BME280;58428;49.478;10.986;2023-03-19T04:15:11;98169.41;;;9.11;100.00
70815;BME280;58428;49.478;10.986;2023-03-19T04:17:37;98174.00;;;9.19;100.00
70815;BME280;58428;49.478;10.986;2023-03-19T04:20:05;98176.84;;;9.22;100.00
70815;BME280;58428;49.478;10.986;2023-03-19T04:22:33;98175.25;;;9.30;100.00
70815;BME280;58428;49.478;10.986;2023-03-19T04:24:59;98181.13;;;9.32;100.00
70815;BME280;58428;49.478;10.986;2023-03-19T04:27:30;98177.78;;;9.35;100.00
70815;BME280;58428;49.478;10.986;2023-03-19T04:29:56;98177.91;;;9.38;100.00
70815;BME280;58428;49.478;10.986;2023-03-19T04:32:21;98184.28;;;9.34;100.00
70815;BME280;58428;49.478;10.986;2023-03-19T04:34:47;98190.47;;;9.34;100.00
70815;BME280;58428;49.478;10.986;2023-03-19T04:37:12;98191.44;;;9.30;100.00
70815;BME280;58428;49.478;10.986;2023-03-19T04:39:38;98193.34;;;9.29;100.00
70815;BME280;58428;49.478;10.986;2023-03-19T04:42:03;98194.19;;;9.13;100.00
70815;BME280;58428;49.478;10.986;2023-03-19T04:44:29;98194.53;;;9.12;100.00
70815;BME280;58428;49.478;10.986;2023-03-19T04:46:55;98192.28;;;9.05;100.00
70815;BME280;58428;49.478;10.986;2023-03-19T04:49:20;98194.38;;;9.08;100.00
70815;BME280;58428;49.478;10.986;2023-03-19T04:51:45;98198.47;;;9.06;100.00
70815;BME280;58428;49.478;10.986;2023-03-19T04:54:11;98195.31;;;9.04;100.00
70815;BME280;58428;49.478;10.986;2023-03-19T04:56:36;98200.25;;;9.02;100.00
70815;BME280;58428;49.478;10.986;2023-03-19T04:59:03;98195.78;;;9.06;100.00
70815;BME280;58428;49.478;10.986;2023-03-19T05:01:29;98194.66;;;9.15;100.00
70815;BME280;58428;49.478;10.986;2023-03-19T05:03:55;98195.59;;;9.19;100.00
70815;BME280;58428;49.478;10.986;2023-03-19T05:06:20;98196.22;;;9.24;100.00
70815;BME280;58428;49.478;10.986;2023-03-19T05:08:46;98197.50;;;9.18;100.00
70815;BME280;58428;49.478;10.986;2023-03-19T05:11:13;98200.41;;;9.14;100.00
70815;BME280;58428;49.478;10.986;2023-03-19T05:13:39;98203.88;;;9.06;100.00
70815;BME280;58428;49.478;10.986;2023-03-19T05:16:05;98203.75;;;9.02;100.00
70815;BME280;58428;49.478;10.986;2023-03-19T05:18:31;98208.03;;;8.95;100.00
70815;BME280;58428;49.478;10.986;2023-03-19T05:20:57;98211.56;;;8.87;100.00
70815;BME280;58428;49.478;10.986;2023-03-19T05:23:23;98208.19;;;8.90;100.00
70815;BME280;58428;49.478;10.986;2023-03-19T05:25:49;98212.19;;;8.92;100.00
70815;BME280;58428;49.478;10.986;2023-03-19T05:28:15;98214.25;;;8.87;100.00
70815;BME280;58428;49.478;10.986;2023-03-19T05:30:41;98223.13;;;8.87;100.00
70815;BME280;58428;49.478;10.986;2023-03-19T05:33:07;98223.75;;;8.93;100.00
70815;BME280;58428;49.478;10.986;2023-03-19T05:35:36;98227.25;;;8.85;100.00
70815;BME280;58428;49.478;10.986;2023-03-19T05:38:01;98237.56;;;8.83;100.00
70815;BME280;58428;49.478;10.986;2023-03-19T05:40:27;98233.47;;;8.77;100.00
70815;BME280;58428;49.478;10.986;2023-03-19T05:42:52;98235.97;;;8.82;100.00
70815;BME280;58428;49.478;10.986;2023-03-19T05:45:18;98238.53;;;8.87;100.00
70815;BME280;58428;49.478;10.986;2023-03-19T05:47:48;98247.72;;;8.94;100.00
70815;BME280;58428;49.478;10.986;2023-03-19T05:50:15;98261.84;;;8.83;100.00
70815;BME280;58428;49.478;10.986;2023-03-19T05:52:42;98260.09;;;8.79;100.00
70815;BME280;58428;49.478;10.986;2023-03-19T05:55:10;98265.19;;;8.88;100.00
70815;BME280;58428;49.478;10.986;2023-03-19T05:57:37;98263.56;;;8.96;100.00
70815;BME280;58428;49.478;10.986;2023-03-19T06:00:03;98269.94;;;8.91;100.00
70815;BME280;58428;49.478;10.986;2023-03-19T06:02:34;98268.16;;;9.04;100.00
70815;BME280;58428;49.478;10.986;2023-03-19T06:05:07;98266.41;;;9.08;100.00
70815;BME280;58428;49.478;10.986;2023-03-19T06:07:34;98280.41;;;9.18;100.00
70815;BME280;58428;49.478;10.986;2023-03-19T06:10:00;98270.84;;;9.20;100.00
70815;BME280;58428;49.478;10.986;2023-03-19T06:12:26;98282.59;;;9.24;100.00
70815;BME280;58428;49.478;10.986;2023-03-19T06:14:53;98286.09;;;9.33;100.00
70815;BME280;58428;49.478;10.986;2023-03-19T06:17:18;98282.25;;;9.43;100.00
70815;BME280;58428;49.478;10.986;2023-03-19T06:19:45;98287.50;;;9.39;100.00
70815;BME280;58428;49.478;10.986;2023-03-19T06:22:10;98282.72;;;9.36;100.00
70815;BME280;58428;49.478;10.986;2023-03-19T06:24:36;98287.19;;;9.41;100.00
70815;BME280;58428;49.478;10.986;2023-03-19T06:27:02;98290.28;;;9.59;100.00
70815;BME280;58428;49.478;10.986;2023-03-19T06:29:27;98289.78;;;9.74;100.00
70815;BME280;58428;49.478;10.986;2023-03-19T06:31:53;98291.97;;;9.81;100.00
70815;BME280;58428;49.478;10.986;2023-03-19T06:34:19;98289.56;;;9.88;100.00
70815;BME280;58428;49.478;10.986;2023-03-19T06:36:44;98290.38;;;9.88;100.00
70815;BME280;58428;49.478;10.986;2023-03-19T06:39:10;98289.97;;;10.06;100.00
70815;BME280;58428;49.478;10.986;2023-03-19T06:41:36;98299.63;;;10.24;100.00
70815;BME280;58428;49.478;10.986;2023-03-19T06:44:03;98295.53;;;10.18;100.00
70815;BME280;58428;49.478;10.986;2023-03-19T06:46:29;98298.22;;;10.18;100.00
70815;BME280;58428;49.478;10.986;2023-03-19T06:48:54;98304.00;;;10.00;100.00
70815;BME280;58428;49.478;10.986;2023-03-19T06:51:20;98304.47;;;10.10;100.00
70815;BME280;58428;49.478;10.986;2023-03-19T06:53:46;98307.94;;;10.11;100.00
70815;BME280;58428;49.478;10.986;2023-03-19T06:56:12;98310.91;;;10.18;100.00
70815;BME280;58428;49.478;10.986;2023-03-19T06:58:39;98317.47;;;10.17;100.00
70815;BME280;58428;49.478;10.986;2023-03-19T07:01:07;98323.28;;;10.27;100.00
70815;BME280;58428;49.478;10.986;2023-03-19T07:03:33;98326.91;;;10.39;100.00
70815;BME280;58428;49.478;10.986;2023-03-19T07:05:59;98331.88;;;10.29;100.00
70815;BME280;58428;49.478;10.986;2023-03-19T07:08:25;98338.28;;;10.53;100.00
70815;BME280;58428;49.478;10.986;2023-03-19T07:11:02;98341.22;;;10.40;100.00
70815;BME280;58428;49.478;10.986;2023-03-19T07:13:28;98346.47;;;10.65;100.00
70815;BME280;58428;49.478;10.986;2023-03-19T07:15:53;98350.09;;;10.69;100.00
70815;BME280;58428;49.478;10.986;2023-03-19T07:18:20;98353.28;;;10.91;100.00
70815;BME280;58428;49.478;10.986;2023-03-19T07:20:45;98356.34;;;11.10;100.00
70815;BME280;58428;49.478;10.986;2023-03-19T07:23:12;98355.28;;;11.23;100.00
70815;BME280;58428;49.478;10.986;2023-03-19T07:25:38;98356.59;;;11.37;100.00
70815;BME280;58428;49.478;10.986;2023-03-19T07:28:03;98363.94;;;11.16;100.00
70815;BME280;58428;49.478;10.986;2023-03-19T07:30:29;98365.44;;;11.26;100.00
70815;BME280;58428;49.478;10.986;2023-03-19T07:32:55;98362.59;;;11.22;100.00
70815;BME280;58428;49.478;10.986;2023-03-19T07:35:22;98368.81;;;11.43;100.00
70815;BME280;58428;49.478;10.986;2023-03-19T07:37:47;98371.00;;;11.49;100.00
70815;BME280;58428;49.478;10.986;2023-03-19T07:40:13;98373.25;;;11.47;100.00
70815;BME280;58428;49.478;10.986;2023-03-19T07:42:39;98369.91;;;11.50;100.00
70815;BME280;58428;49.478;10.986;2023-03-19T07:45:05;98381.09;;;11.61;100.00
70815;BME280;58428;49.478;10.986;2023-03-19T07:47:32;98375.50;;;11.66;100.00
70815;BME280;58428;49.478;10.986;2023-03-19T07:49:57;98381.88;;;11.81;100.00
70815;BME280;58428;49.478;10.986;2023-03-19T07:52:24;98385.94;;;11.87;100.00
70815;BME280;58428;49.478;10.986;2023-03-19T07:54:50;98386.75;;;12.00;100.00
70815;BME280;58428;49.478;10.986;2023-03-19T07:57:18;98380.44;;;12.08;100.00
70815;BME280;58428;49.478;10.986;2023-03-19T07:59:46;98391.56;;;12.14;100.00
70815;BME280;58428;49.478;10.986;2023-03-19T08:02:12;98400.16;;;12.16;100.00
70815;BME280;58428;49.478;10.986;2023-03-19T08:04:38;98401.38;;;12.07;100.00
70815;BME280;58428;49.478;10.986;2023-03-19T08:07:04;98399.31;;;11.92;100.00
70815;BME280;58428;49.478;10.986;2023-03-19T08:09:31;98404.78;;;11.84;100.00
70815;BME280;58428;49.478;10.986;2023-03-19T08:11:58;98403.22;;;11.83;100.00
70815;BME280;58428;49.478;10.986;2023-03-19T08:14:24;98409.84;;;11.74;100.00
70815;BME280;58428;49.478;10.986;2023-03-19T08:16:49;98408.41;;;11.88;100.00
70815;BME280;58428;49.478;10.986;2023-03-19T08:19:15;98414.47;;;12.05;100.00
70815;BME280;58428;49.478;10.986;2023-03-19T08:21:43;98406.00;;;12.07;100.00
70815;BME280;58428;49.478;10.986;2023-03-19T08:24:09;98420.47;;;12.11;100.00
70815;BME280;58428;49.478;10.986;2023-03-19T08:26:34;98413.34;;;12.06;100.00
70815;BME280;58428;49.478;10.986;2023-03-19T08:29:00;98416.56;;;11.88;100.00
70815;BME280;58428;49.478;10.986;2023-03-19T08:31:25;98419.34;;;11.79;100.00
70815;BME280;58428;49.478;10.986;2023-03-19T08:33:51;98426.81;;;11.82;100.00
70815;BME280;58428;49.478;10.986;2023-03-19T08:36:17;98433.28;;;11.90;100.00
70815;BME280;58428;49.478;10.986;2023-03-19T08:38:45;98441.09;;;11.91;100.00
70815;BME280;58428;49.478;10.986;2023-03-19T08:41:11;98438.63;;;11.98;100.00
70815;BME280;58428;49.478;10.986;2023-03-19T08:43:36;98438.94;;;11.85;100.00
70815;BME280;58428;49.478;10.986;2023-03-19T08:46:03;98438.47;;;11.83;100.00
70815;BME280;58428;49.478;10.986;2023-03-19T08:48:29;98438.09;;;11.84;100.00
70815;BME280;58428;49.478;10.986;2023-03-19T08:50:58;98447.19;;;11.68;100.00
70815;BME280;58428;49.478;10.986;2023-03-19T08:53:24;98448.47;;;11.50;100.00
70815;BME280;58428;49.478;10.986;2023-03-19T08:55:57;98452.69;;;11.60;100.00
70815;BME280;58428;49.478;10.986;2023-03-19T08:58:24;98455.47;;;11.72;100.00
70815;BME280;58428;49.478;10.986;2023-03-19T09:00:51;98446.53;;;11.51;100.00
70815;BME280;58428;49.478;10.986;2023-03-19T09:03:17;98447.75;;;11.62;100.00
70815;BME280;58428;49.478;10.986;2023-03-19T09:05:45;98457.03;;;11.73;100.00
70815;BME280;58428;49.478;10.986;2023-03-19T09:08:11;98457.16;;;11.76;100.00
70815;BME280;58428;49.478;10.986;2023-03-19T09:10:38;98459.16;;;11.87;100.00
70815;BME280;58428;49.478;10.986;2023-03-19T09:13:05;98460.31;;;11.98;100.00
70815;BME280;58428;49.478;10.986;2023-03-19T09:15:31;98459.50;;;11.98;100.00
70815;BME280;58428;49.478;10.986;2023-03-19T09:17:56;98462.13;;;11.74;100.00
70815;BME280;58428;49.478;10.986;2023-03-19T09:20:22;98466.44;;;11.75;100.00
70815;BME280;58428;49.478;10.986;2023-03-19T09:22:47;98465.44;;;11.79;100.00
70815;BME280;58428;49.478;10.986;2023-03-19T09:25:13;98464.41;;;12.04;100.00
70815;BME280;58428;49.478;10.986;2023-03-19T09:27:41;98460.53;;;12.25;100.00
70815;BME280;58428;49.478;10.986;2023-03-19T09:30:10;98463.84;;;12.43;100.00
70815;BME280;58428;49.478;10.986;2023-03-19T09:32:37;98454.59;;;12.55;100.00
70815;BME280;58428;49.478;10.986;2023-03-19T09:35:03;98463.88;;;12.54;100.00
70815;BME280;58428;49.478;10.986;2023-03-19T09:37:28;98469.44;;;12.70;100.00
70815;BME280;58428;49.478;10.986;2023-03-19T09:45:45;98466.28;;;12.68;100.00
70815;BME280;58428;49.478;10.986;2023-03-19T09:51:18;98472.31;;;12.41;100.00
70815;BME280;58428;49.478;10.986;2023-03-19T09:53:54;98478.50;;;12.30;100.00
70815;BME280;58428;49.478;10.986;2023-03-19T09:56:23;98465.28;;;12.28;100.00
70815;BME280;58428;49.478;10.986;2023-03-19T09:58:49;98469.28;;;12.43;100.00
70815;BME280;58428;49.478;10.986;2023-03-19T10:01:32;98472.16;;;12.26;100.00
70815;BME280;58428;49.478;10.986;2023-03-19T10:07:07;98474.16;;;12.49;100.00
70815;BME280;58428;49.478;10.986;2023-03-19T10:12:28;98475.63;;;12.47;100.00
70815;BME280;58428;49.478;10.986;2023-03-19T10:15:30;98471.00;;;12.59;100.00
70815;BME280;58428;49.478;10.986;2023-03-19T10:26:03;98474.16;;;12.17;100.00
70815;BME280;58428;49.478;10.986;2023-03-19T10:28:31;98475.25;;;12.36;100.00
70815;BME280;58428;49.478;10.986;2023-03-19T10:31:12;98480.03;;;12.51;100.00
70815;BME280;58428;49.478;10.986;2023-03-19T10:36:35;98467.88;;;12.81;100.00
70815;BME280;58428;49.478;10.986;2023-03-19T10:39:02;98464.16;;;12.97;100.00
70815;BME280;58428;49.478;10.986;2023-03-19T10:41:48;98460.53;;;13.17;100.00
70815;BME280;58428;49.478;10.986;2023-03-19T10:44:30;98469.91;;;13.19;100.00
70815;BME280;58428;49.478;10.986;2023-03-19T10:46:57;98462.16;;;13.45;100.00
70815;BME280;58428;49.478;10.986;2023-03-19T10:49:24;98460.31;;;13.60;100.00
70815;BME280;58428;49.478;10.986;2023-03-19T10:51:55;98460.38;;;13.76;100.00
70815;BME280;58428;49.478;10.986;2023-03-19T10:54:26;98455.41;;;13.78;100.00
70815;BME280;58428;49.478;10.986;2023-03-19T10:56:57;98462.38;;;13.63;100.00
70815;BME280;58428;49.478;10.986;2023-03-19T11:01:56;98442.81;;;14.12;100.00
70815;BME280;58428;49.478;10.986;2023-03-19T11:04:33;98445.41;;;14.36;100.00
70815;BME280;58428;49.478;10.986;2023-03-19T11:07:08;98446.59;;;14.50;100.00
70815;BME280;58428;49.478;10.986;2023-03-19T11:09:40;98439.03;;;14.74;100.00
70815;BME280;58428;49.478;10.986;2023-03-19T11:14:57;98434.22;;;15.14;100.00
70815;BME280;58428;49.478;10.986;2023-03-19T11:17:39;98434.56;;;15.12;100.00
70815;BME280;58428;49.478;10.986;2023-03-19T11:20:31;98436.47;;;15.27;100.00
70815;BME280;58428;49.478;10.986;2023-03-19T11:22:59;98434.66;;;15.35;100.00
70815;BME280;58428;49.478;10.986;2023-03-19T11:25:36;98421.13;;;15.38;100.00
70815;BME280;58428;49.478;10.986;2023-03-19T11:28:12;98427.25;;;15.69;100.00
70815;BME280;58428;49.478;10.986;2023-03-19T11:33:54;98416.59;;;15.80;100.00
70815;BME280;58428;49.478;10.986;2023-03-19T11:36:55;98413.06;;;15.60;100.00
70815;BME280;58428;49.478;10.986;2023-03-19T11:48:03;98387.59;;;16.13;100.00
70815;BME280;58428;49.478;10.986;2023-03-19T11:50:55;98380.81;;;16.22;100.00
70815;BME280;58428;49.478;10.986;2023-03-19T11:56:49;98364.84;;;16.46;100.00
70815;BME280;58428;49.478;10.986;2023-03-19T12:05:11;98356.06;;;16.34;100.00
70815;BME280;58428;49.478;10.986;2023-03-19T12:13:33;98348.81;;;16.04;100.00
70815;BME280;58428;49.478;10.986;2023-03-19T12:25:23;98349.81;;;15.17;100.00
70815;BME280;58428;49.478;10.986;2023-03-19T12:27:54;98355.31;;;15.06;100.00
70815;BME280;58428;49.478;10.986;2023-03-19T12:30:40;98354.72;;;15.12;100.00
70815;BME280;58428;49.478;10.986;2023-03-19T12:36:28;98355.47;;;15.65;100.00
70815;BME280;58428;49.478;10.986;2023-03-19T12:39:25;98358.91;;;16.00;100.00
70815;BME280;58428;49.478;10.986;2023-03-19T12:41:55;98346.69;;;16.35;100.00
70815;BME280;58428;49.478;10.986;2023-03-19T12:44:29;98338.22;;;16.40;100.00
70815;BME280;58428;49.478;10.986;2023-03-19T12:47:13;98335.78;;;16.57;100.00
70815;BME280;58428;49.478;10.986;2023-03-19T12:49:55;98336.53;;;17.09;100.00
70815;BME280;58428;49.478;10.986;2023-03-19T12:52:38;98327.66;;;17.41;100.00
70815;BME280;58428;49.478;10.986;2023-03-19T12:55:20;98323.25;;;17.33;100.00
70815;BME280;58428;49.478;10.986;2023-03-19T13:02:56;98321.00;;;17.42;100.00
70815;BME280;58428;49.478;10.986;2023-03-19T13:05:43;98319.34;;;17.34;100.00
70815;BME280;58428;49.478;10.986;2023-03-19T13:08:22;98320.41;;;17.26;100.00
70815;BME280;58428;49.478;10.986;2023-03-19T13:10:51;98318.66;;;17.15;100.00
70815;BME280;58428;49.478;10.986;2023-03-19T13:21:40;98311.09;;;17.05;100.00
70815;BME280;58428;49.478;10.986;2023-03-19T13:24:28;98310.50;;;16.89;100.00
70815;BME280;58428;49.478;10.986;2023-03-19T13:26:58;98306.91;;;16.34;100.00
70815;BME280;58428;49.478;10.986;2023-03-19T13:29:30;98318.75;;;16.00;100.00
70815;BME280;58428;49.478;10.986;2023-03-19T13:32:05;98314.63;;;16.10;100.00
70815;BME280;58428;49.478;10.986;2023-03-19T13:34:34;98309.94;;;16.10;100.00
70815;BME280;58428;49.478;10.986;2023-03-19T13:37:13;98305.66;;;16.31;100.00
70815;BME280;58428;49.478;10.986;2023-03-19T13:39:45;98303.78;;;16.58;100.00
70815;BME280;58428;49.478;10.986;2023-03-19T13:42:39;98300.47;;;16.71;100.00
70815;BME280;58428;49.478;10.986;2023-03-19T13:50:59;98292.38;;;17.07;100.00
70815;BME280;58428;49.478;10.986;2023-03-19T13:53:37;98293.09;;;17.00;100.00
70815;BME280;58428;49.478;10.986;2023-03-19T13:56:11;98289.06;;;16.65;100.00
70815;BME280;58428;49.478;10.986;2023-03-19T13:59:22;98291.44;;;16.19;100.00
70815;BME280;58428;49.478;10.986;2023-03-19T14:01:48;98293.19;;;16.30;100.00
70815;BME280;58428;49.478;10.986;2023-03-19T14:04:31;98292.78;;;16.10;100.00
70815;BME280;58428;49.478;10.986;2023-03-19T14:17:52;98278.28;;;16.24;100.00
70815;BME280;58428;49.478;10.986;2023-03-19T14:28:20;98271.56;;;16.44;100.00
70815;BME280;58428;49.478;10.986;2023-03-19T14:30:48;98271.75;;;16.32;100.00
70815;BME280;58428;49.478;10.986;2023-03-19T14:33:43;98277.78;;;16.19;100.00
70815;BME280;58428;49.478;10.986;2023-03-19T14:36:14;98277.63;;;15.90;100.00
70815;BME280;58428;49.478;10.986;2023-03-19T14:38:58;98278.06;;;15.92;100.00
70815;BME280;58428;49.478;10.986;2023-03-19T14:41:26;98283.19;;;15.75;100.00
70815;BME280;58428;49.478;10.986;2023-03-19T14:53:13;98283.50;;;15.70;100.00
70815;BME280;58428;49.478;10.986;2023-03-19T14:55:49;98283.78;;;15.65;100.00
70815;BME280;58428;49.478;10.986;2023-03-19T14:58:20;98283.44;;;15.66;100.00
70815;BME280;58428;49.478;10.986;2023-03-19T15:00:50;98276.53;;;15.72;100.00